createdAt,value
2022-10-02T00:00:28.256Z,99816.06
2022-10-02T00:01:14.294Z,99819.88
2022-10-02T00:02:02.010Z,99812.50
2022-10-02T00:02:48.478Z,99816.56
2022-10-02T00:03:31.359Z,99819.06
2022-10-02T00:04:15.791Z,99816.88
2022-10-02T00:05:02.044Z,99820.69
2022-10-02T00:05:50.729Z,99814.34
2022-10-02T00:06:38.586Z,99817.88
2022-10-02T00:07:24.922Z,99812.94
2022-10-02T00:08:08.020Z,99817.00
2022-10-02T00:08:55.668Z,99820.03
2022-10-02T00:09:31.930Z,99819.72
2022-10-02T00:10:03.324Z,99820.25
2022-10-02T00:10:34.776Z,99817.53
2022-10-02T00:11:06.138Z,99822.19
2022-10-02T00:11:37.521Z,99816.47
2022-10-02T00:12:08.941Z,99818.19
2022-10-02T00:12:40.382Z,99822.53
2022-10-02T00:13:11.846Z,99822.09
2022-10-02T00:13:43.247Z,99820.50
2022-10-02T00:14:14.622Z,99819.75
2022-10-02T00:14:45.984Z,99826.53
2022-10-02T00:15:17.412Z,99827.06
2022-10-02T00:15:48.837Z,99819.69
2022-10-02T00:16:20.409Z,99816.56
2022-10-02T00:16:51.972Z,99825.34
2022-10-02T00:17:23.373Z,99816.66
2022-10-02T00:17:54.792Z,99817.97
2022-10-02T00:18:26.270Z,99812.81
2022-10-02T00:18:57.678Z,99817.53
2022-10-02T00:19:29.154Z,99820.78
2022-10-02T00:20:00.608Z,99819.47
2022-10-02T00:20:32.044Z,99819.75
2022-10-02T00:21:03.515Z,99821.47
2022-10-02T00:21:34.921Z,99826.13
2022-10-02T00:22:06.338Z,99818.81
2022-10-02T00:22:37.739Z,99821.09
2022-10-02T00:23:09.197Z,99824.31
2022-10-02T00:23:40.663Z,99829.19
2022-10-02T00:24:12.055Z,99824.31
2022-10-02T00:24:43.438Z,99831.09
2022-10-02T00:25:14.839Z,99832.50
2022-10-02T00:25:46.310Z,99825.94
2022-10-02T00:26:17.726Z,99828.16
2022-10-02T00:26:49.151Z,99824.63
2022-10-02T00:27:20.598Z,99823.44
2022-10-02T00:27:52.058Z,99817.75
2022-10-02T00:28:23.614Z,99821.38
2022-10-02T00:28:55.152Z,99825.53
2022-10-02T00:29:26.601Z,99819.25
2022-10-02T00:29:57.982Z,99825.09
2022-10-02T00:30:29.333Z,99827.13
2022-10-02T00:31:00.751Z,99826.63
2022-10-02T00:31:32.229Z,99815.78
2022-10-02T00:32:03.740Z,99825.91
2022-10-02T00:32:35.286Z,99827.50
2022-10-02T00:33:06.708Z,99828.84
2022-10-02T00:33:38.085Z,99825.81
2022-10-02T00:34:14.381Z,99827.72
2022-10-02T00:34:46.656Z,99827.22
2022-10-02T00:35:18.116Z,99833.50
2022-10-02T00:35:49.506Z,99831.56
2022-10-02T00:36:20.953Z,99832.38
2022-10-02T00:36:52.341Z,99827.22
2022-10-02T00:37:23.748Z,99830.75
2022-10-02T00:37:55.233Z,99835.03
2022-10-02T00:38:26.685Z,99821.38
2022-10-02T00:38:58.132Z,99825.81
2022-10-02T00:39:29.618Z,99839.75
2022-10-02T00:40:01.001Z,99826.31
2022-10-02T00:40:32.388Z,99830.16
2022-10-02T00:41:03.857Z,99829.34
2022-10-02T00:41:35.314Z,99830.75
2022-10-02T00:42:06.707Z,99831.19
2022-10-02T00:42:38.070Z,99827.72
2022-10-02T00:43:09.519Z,99823.38
2022-10-02T00:43:40.923Z,99834.81
2022-10-02T00:44:12.350Z,99834.59
2022-10-02T00:44:43.828Z,99837.34
2022-10-02T00:45:15.202Z,99828.84
2022-10-02T00:45:46.627Z,99844.13
2022-10-02T00:46:18.137Z,99839.47
2022-10-02T00:46:49.570Z,99836.72
2022-10-02T00:47:20.955Z,99840.78
2022-10-02T00:47:52.361Z,99836.22
2022-10-02T00:48:23.819Z,99838.94
2022-10-02T00:48:55.243Z,99837.34
2022-10-02T00:49:26.658Z,99836.72
2022-10-02T00:49:58.111Z,99837.53
2022-10-02T00:50:29.502Z,99835.34
2022-10-02T00:51:00.972Z,99836.72
2022-10-02T00:51:32.395Z,99839.91
2022-10-02T00:52:03.837Z,99830.97
2022-10-02T00:52:35.252Z,99836.22
2022-10-02T00:53:06.659Z,99834.81
2022-10-02T00:53:38.035Z,99838.66
2022-10-02T00:54:09.413Z,99834.81
2022-10-02T00:54:40.812Z,99836.22
2022-10-02T00:55:12.275Z,99837.03
2022-10-02T00:55:43.757Z,99839.75
2022-10-02T00:56:15.204Z,99845.72
2022-10-02T00:56:46.657Z,99840.88
2022-10-02T00:57:18.103Z,99836.22
2022-10-02T00:57:49.559Z,99843.00
2022-10-02T00:58:21.037Z,99833.72
2022-10-02T00:58:52.454Z,99832.09
2022-10-02T00:59:23.878Z,99839.75
2022-10-02T00:59:55.362Z,99841.69
2022-10-02T01:00:26.779Z,99834.38
2022-10-02T01:00:58.308Z,99842.28
2022-10-02T01:01:29.751Z,99835.91
2022-10-02T01:02:01.201Z,99832.69
2022-10-02T01:02:32.637Z,99833.78
2022-10-02T01:03:04.110Z,99834.81
2022-10-02T01:03:35.505Z,99847.13
2022-10-02T01:04:06.952Z,99829.44
2022-10-02T01:04:38.420Z,99832.16
2022-10-02T01:05:09.815Z,99834.00
2022-10-02T01:05:41.185Z,99836.13
2022-10-02T01:06:12.625Z,99835.25
2022-10-02T01:06:44.035Z,99832.09
2022-10-02T01:07:15.466Z,99838.94
2022-10-02T01:07:46.837Z,99837.34
2022-10-02T01:08:18.289Z,99840.88
2022-10-02T01:08:49.852Z,99837.03
2022-10-02T01:09:21.258Z,99839.25
2022-10-02T01:09:52.744Z,99842.78
2022-10-02T01:10:24.164Z,99842.28
2022-10-02T01:10:55.601Z,99842.56
2022-10-02T01:11:27.041Z,99845.81
2022-10-02T01:11:58.514Z,99839.53
2022-10-02T01:12:29.938Z,99846.09
2022-10-02T01:13:01.449Z,99846.63
2022-10-02T01:13:32.952Z,99852.38
2022-10-02T01:14:04.430Z,99846.09
2022-10-02T01:14:35.827Z,99841.47
2022-10-02T01:15:07.189Z,99849.66
2022-10-02T01:15:38.684Z,99846.91
2022-10-02T01:16:10.212Z,99854.53
2022-10-02T01:16:41.688Z,99845.53
2022-10-02T01:17:13.155Z,99839.53
2022-10-02T01:17:44.585Z,99846.91
2022-10-02T01:18:16.055Z,99844.50
2022-10-02T01:18:47.524Z,99851.56
2022-10-02T01:19:18.947Z,99851.78
2022-10-02T01:19:50.391Z,99853.41
2022-10-02T01:20:21.813Z,99840.88
2022-10-02T01:20:53.265Z,99857.03
2022-10-02T01:21:24.664Z,99850.75
2022-10-02T01:21:56.096Z,99859.47
2022-10-02T01:23:09.375Z,99847.22
2022-10-02T01:23:40.689Z,99843.38
2022-10-02T01:24:11.995Z,99851.78
2022-10-02T01:24:43.355Z,99845.53
2022-10-02T01:25:14.701Z,99839.47
2022-10-02T01:25:46.074Z,99849.56
2022-10-02T01:26:17.430Z,99849.88
2022-10-02T01:26:48.828Z,99851.78
2022-10-02T01:27:20.289Z,99846.31
2022-10-02T01:27:51.746Z,99848.25
2022-10-02T01:28:23.229Z,99844.13
2022-10-02T01:28:54.655Z,99853.41
2022-10-02T01:29:26.021Z,99847.94
2022-10-02T01:29:57.373Z,99850.16
2022-10-02T01:30:28.781Z,99852.38
2022-10-02T01:31:00.151Z,99839.53
2022-10-02T01:31:31.595Z,99845.81
2022-10-02T01:32:03.048Z,99843.38
2022-10-02T01:32:34.454Z,99843.59
2022-10-02T01:33:05.942Z,99847.13
2022-10-02T01:33:37.318Z,99843.09
2022-10-02T01:34:08.758Z,99842.78
2022-10-02T01:34:40.131Z,99846.91
2022-10-02T01:35:11.479Z,99845.53
2022-10-02T01:35:42.813Z,99841.69
2022-10-02T01:36:14.192Z,99843.91
2022-10-02T01:36:45.590Z,99845.72
2022-10-02T01:37:17.003Z,99847.72
2022-10-02T01:37:48.401Z,99846.91
2022-10-02T01:38:19.853Z,99850.16
2022-10-02T01:38:51.283Z,99847.44
2022-10-02T01:39:22.639Z,99841.47
2022-10-02T01:39:53.972Z,99846.69
2022-10-02T01:40:25.381Z,99845.31
2022-10-02T01:40:56.775Z,99853.19
2022-10-02T01:41:28.175Z,99853.19
2022-10-02T01:41:59.646Z,99845.00
2022-10-02T01:42:31.022Z,99846.09
2022-10-02T01:43:02.577Z,99846.63
2022-10-02T01:43:34.102Z,99854.81
2022-10-02T01:44:05.556Z,99852.38
2022-10-02T01:44:36.981Z,99849.94
2022-10-02T01:45:08.535Z,99853.19
2022-10-02T01:45:39.920Z,99848.03
2022-10-02T01:46:11.375Z,99855.41
2022-10-02T01:46:42.756Z,99852.16
2022-10-02T01:47:14.145Z,99853.19
2022-10-02T01:47:45.632Z,99851.28
2022-10-02T01:48:17.019Z,99854.31
2022-10-02T01:48:48.439Z,99847.72
2022-10-02T01:49:19.786Z,99857.03
2022-10-02T01:49:51.098Z,99858.13
2022-10-02T01:50:22.488Z,99854.00
2022-10-02T01:50:53.883Z,99843.38
2022-10-02T01:51:25.286Z,99852.38
2022-10-02T01:51:56.671Z,99850.75
2022-10-02T01:52:28.130Z,99849.13
2022-10-02T01:52:59.626Z,99847.53
2022-10-02T01:53:31.082Z,99855.91
2022-10-02T01:54:02.579Z,99853.50
2022-10-02T01:54:33.989Z,99854.00
2022-10-02T01:55:05.317Z,99853.19
2022-10-02T01:55:36.739Z,99859.25
2022-10-02T01:56:08.110Z,99854.31
2022-10-02T01:56:39.899Z,99852.09
2022-10-02T01:57:11.415Z,99854.81
2022-10-02T01:57:42.724Z,99851.56
2022-10-02T01:58:14.117Z,99848.53
2022-10-02T01:58:45.551Z,99853.19
2022-10-02T01:59:16.971Z,99855.63
2022-10-02T01:59:48.328Z,99852.69
2022-10-02T02:00:19.716Z,99849.94
2022-10-02T02:00:51.154Z,99848.53
2022-10-02T02:01:22.623Z,99845.31
2022-10-02T02:01:54.114Z,99849.94
2022-10-02T02:02:25.690Z,99844.50
2022-10-02T02:02:57.118Z,99847.22
2022-10-02T02:03:28.538Z,99846.69
2022-10-02T02:03:59.916Z,99848.53
2022-10-02T02:04:31.273Z,99846.09
2022-10-02T02:05:02.652Z,99846.09
2022-10-02T02:05:34.021Z,99852.09
2022-10-02T02:06:05.396Z,99851.88
2022-10-02T02:06:37.014Z,99847.22
2022-10-02T02:07:08.566Z,99845.00
2022-10-02T02:07:40.016Z,99847.72
2022-10-02T02:08:11.337Z,99844.19
2022-10-02T02:08:42.809Z,99848.84
2022-10-02T02:09:14.148Z,99841.69
2022-10-02T02:09:45.655Z,99845.00
2022-10-02T02:10:17.054Z,99843.09
2022-10-02T02:10:48.472Z,99849.94
2022-10-02T02:11:19.899Z,99852.09
2022-10-02T02:11:51.467Z,99845.81
2022-10-02T02:12:22.981Z,99847.22
2022-10-02T02:12:54.443Z,99840.34
2022-10-02T02:13:26.183Z,99846.91
2022-10-02T02:13:57.925Z,99841.16
2022-10-02T02:14:29.488Z,99842.50
2022-10-02T02:15:01.600Z,99844.19
2022-10-02T02:15:33.040Z,99841.16
2022-10-02T02:16:04.770Z,99838.72
2022-10-02T02:16:37.106Z,99840.06
2022-10-02T02:17:08.816Z,99837.13
2022-10-02T02:17:40.195Z,99843.69
2022-10-02T02:18:11.566Z,99841.47
2022-10-02T02:18:42.940Z,99847.22
2022-10-02T02:19:14.437Z,99837.63
2022-10-02T02:19:45.803Z,99837.03
2022-10-02T02:20:17.159Z,99839.75
2022-10-02T02:20:48.521Z,99837.63
2022-10-02T02:21:22.150Z,99841.47
2022-10-02T02:21:53.662Z,99842.88
2022-10-02T02:22:25.001Z,99832.75
2022-10-02T02:22:56.415Z,99834.38
2022-10-02T02:23:27.760Z,99839.84
2022-10-02T02:23:59.240Z,99840.94
2022-10-02T02:24:30.682Z,99840.94
2022-10-02T02:25:02.083Z,99833.28
2022-10-02T02:25:33.451Z,99841.47
2022-10-02T02:26:04.857Z,99837.34
2022-10-02T02:26:36.572Z,99829.94
2022-10-02T02:27:08.142Z,99840.34
2022-10-02T02:27:39.527Z,99841.16
2022-10-02T02:28:10.992Z,99840.06
2022-10-02T02:28:42.374Z,99839.53
2022-10-02T02:29:13.813Z,99838.72
2022-10-02T02:29:45.240Z,99836.00
2022-10-02T02:30:16.612Z,99834.38
2022-10-02T02:30:48.018Z,99842.28
2022-10-02T02:31:19.459Z,99838.72
2022-10-02T02:31:50.964Z,99839.84
2022-10-02T02:32:22.324Z,99840.44
2022-10-02T02:32:53.653Z,99835.50
2022-10-02T02:33:24.993Z,99842.50
2022-10-02T02:33:56.356Z,99840.88
2022-10-02T02:34:27.756Z,99839.53
2022-10-02T02:34:59.183Z,99846.91
2022-10-02T02:35:30.565Z,99845.31
2022-10-02T02:36:01.967Z,99852.38
2022-10-02T02:36:33.455Z,99849.66
2022-10-02T02:37:05.116Z,99842.50
2022-10-02T02:37:36.493Z,99848.53
2022-10-02T02:38:07.929Z,99845.81
2022-10-02T02:38:39.353Z,99846.09
2022-10-02T02:39:10.718Z,99844.72
2022-10-02T02:39:42.046Z,99839.53
2022-10-02T02:40:13.411Z,99845.31
2022-10-02T02:40:44.754Z,99851.28
2022-10-02T02:41:16.102Z,99845.00
2022-10-02T02:41:47.493Z,99847.72
2022-10-02T02:42:20.093Z,99848.75
2022-10-02T02:42:54.092Z,99845.81
2022-10-02T02:43:25.428Z,99846.91
2022-10-02T02:43:56.807Z,99848.03
2022-10-02T02:44:28.175Z,99852.38
2022-10-02T02:44:59.625Z,99847.44
2022-10-02T02:45:30.992Z,99843.91
2022-10-02T02:46:02.471Z,99850.75
2022-10-02T02:46:34.285Z,99846.91
2022-10-02T02:47:05.835Z,99846.31
2022-10-02T02:47:37.207Z,99855.13
2022-10-02T02:48:08.598Z,99844.50
2022-10-02T02:48:39.978Z,99845.81
2022-10-02T02:49:11.379Z,99855.91
2022-10-02T02:49:42.780Z,99854.00
2022-10-02T02:50:14.138Z,99848.53
2022-10-02T02:50:45.508Z,99854.00
2022-10-02T02:51:16.842Z,99849.34
2022-10-02T02:51:48.265Z,99848.53
2022-10-02T02:52:19.703Z,99854.81
2022-10-02T02:52:51.123Z,99851.28
2022-10-02T02:53:22.476Z,99854.81
2022-10-02T02:53:53.792Z,99848.53
2022-10-02T02:54:25.263Z,99850.16
2022-10-02T02:54:56.588Z,99855.41
2022-10-02T02:55:27.921Z,99850.47
2022-10-02T02:55:59.332Z,99855.13
2022-10-02T02:56:30.663Z,99858.66
2022-10-02T02:57:02.024Z,99851.88
2022-10-02T02:57:33.429Z,99857.03
2022-10-02T02:58:04.843Z,99860.56
2022-10-02T02:58:36.193Z,99858.94
2022-10-02T02:59:07.654Z,99853.78
2022-10-02T02:59:38.958Z,99844.78
2022-10-02T03:00:10.350Z,99861.69
2022-10-02T03:00:41.780Z,99854.00
2022-10-02T03:01:13.320Z,99851.88
2022-10-02T03:01:44.766Z,99849.94
2022-10-02T03:02:16.189Z,99852.38
2022-10-02T03:02:47.646Z,99859.47
2022-10-02T03:03:18.982Z,99854.00
2022-10-02T03:03:50.306Z,99849.66
2022-10-02T03:04:21.863Z,99847.22
2022-10-02T03:04:53.269Z,99857.03
2022-10-02T03:05:24.681Z,99850.75
2022-10-02T03:05:56.044Z,99853.50
2022-10-02T03:06:27.478Z,99848.53
2022-10-02T03:06:58.867Z,99855.41
2022-10-02T03:07:30.215Z,99857.84
2022-10-02T03:08:01.609Z,99855.63
2022-10-02T03:08:32.995Z,99854.81
2022-10-02T03:09:04.340Z,99853.19
2022-10-02T03:09:35.794Z,99848.03
2022-10-02T03:10:07.144Z,99852.69
2022-10-02T03:10:38.541Z,99855.34
2022-10-02T03:11:10.000Z,99851.28
2022-10-02T03:11:41.338Z,99861.38
2022-10-02T03:12:12.688Z,99855.91
2022-10-02T03:12:44.113Z,99846.63
2022-10-02T03:13:15.460Z,99849.06
2022-10-02T03:13:46.815Z,99853.72
2022-10-02T03:14:18.186Z,99847.44
2022-10-02T03:14:49.714Z,99853.50
2022-10-02T03:15:21.040Z,99852.38
2022-10-02T03:15:52.516Z,99860.50
2022-10-02T03:16:23.903Z,99855.34
2022-10-02T03:16:55.362Z,99847.94
2022-10-02T03:17:26.706Z,99846.31
2022-10-02T03:17:58.061Z,99851.78
2022-10-02T03:18:29.491Z,99843.91
2022-10-02T03:19:00.829Z,99849.94
2022-10-02T03:19:32.167Z,99850.47
2022-10-02T03:20:03.649Z,99843.09
2022-10-02T03:20:34.952Z,99846.91
2022-10-02T03:21:06.306Z,99854.31
2022-10-02T03:21:37.673Z,99839.84
2022-10-02T03:22:09.057Z,99843.38
2022-10-02T03:22:40.444Z,99843.09
2022-10-02T03:23:11.801Z,99841.47
2022-10-02T03:23:43.172Z,99843.91
2022-10-02T03:24:14.620Z,99846.31
2022-10-02T03:24:46.031Z,99841.75
2022-10-02T03:25:17.428Z,99842.56
2022-10-02T03:25:48.817Z,99839.25
2022-10-02T03:26:20.197Z,99841.97
2022-10-02T03:26:51.564Z,99849.56
2022-10-02T03:27:22.918Z,99838.13
2022-10-02T03:27:54.335Z,99837.34
2022-10-02T03:28:43.830Z,99836.72
2022-10-02T03:29:17.183Z,99838.94
2022-10-02T03:29:48.576Z,99846.63
2022-10-02T03:30:20.019Z,99840.88
2022-10-02T03:30:51.369Z,99844.72
2022-10-02T03:31:22.810Z,99843.91
2022-10-02T03:31:54.340Z,99844.19
2022-10-02T03:32:25.690Z,99845.53
2022-10-02T03:32:57.070Z,99845.53
2022-10-02T03:33:28.576Z,99845.31
2022-10-02T03:33:59.959Z,99843.38
2022-10-02T03:34:31.359Z,99843.91
2022-10-02T03:35:02.698Z,99850.69
2022-10-02T03:35:34.026Z,99848.53
2022-10-02T03:36:05.340Z,99848.53
2022-10-02T03:36:37.004Z,99841.75
2022-10-02T03:37:08.611Z,99853.50
2022-10-02T03:37:40.059Z,99846.91
2022-10-02T03:38:11.420Z,99854.22
2022-10-02T03:38:42.812Z,99852.91
2022-10-02T03:39:24.851Z,99856.72
2022-10-02T03:39:56.835Z,99859.97
2022-10-02T03:40:28.195Z,99852.91
2022-10-02T03:40:59.598Z,99858.34
2022-10-02T03:41:30.981Z,99858.34
2022-10-02T03:42:02.429Z,99854.31
2022-10-02T03:42:33.811Z,99860.28
2022-10-02T03:43:05.175Z,99854.31
2022-10-02T03:43:36.551Z,99848.53
2022-10-02T03:44:07.941Z,99853.19
2022-10-02T03:44:39.397Z,99852.38
2022-10-02T03:45:16.588Z,99849.06
2022-10-02T03:45:58.808Z,99849.34
2022-10-02T03:46:30.305Z,99847.72
2022-10-02T03:47:01.714Z,99855.13
2022-10-02T03:47:33.100Z,99849.34
2022-10-02T03:48:04.472Z,99849.66
2022-10-02T03:48:35.851Z,99854.00
2022-10-02T03:49:07.216Z,99843.69
2022-10-02T03:49:38.659Z,99846.69
2022-10-02T03:50:10.111Z,99849.13
2022-10-02T03:50:41.562Z,99843.69
2022-10-02T03:51:13.018Z,99847.72
2022-10-02T03:51:44.422Z,99844.72
2022-10-02T03:52:15.785Z,99846.91
2022-10-02T03:52:47.167Z,99847.94
2022-10-02T03:53:18.631Z,99852.91
2022-10-02T03:53:49.994Z,99851.28
2022-10-02T03:54:21.428Z,99844.13
2022-10-02T03:54:52.769Z,99851.50
2022-10-02T03:55:24.134Z,99845.81
2022-10-02T03:55:55.526Z,99847.44
2022-10-02T03:56:26.899Z,99845.00
2022-10-02T03:56:58.272Z,99842.28
2022-10-02T03:57:29.630Z,99843.09
2022-10-02T03:58:01.019Z,99843.91
2022-10-02T03:58:32.389Z,99841.97
2022-10-02T03:59:03.779Z,99844.72
2022-10-02T03:59:35.141Z,99843.38
2022-10-02T04:00:06.542Z,99842.88
2022-10-02T04:00:37.929Z,99842.56
2022-10-02T04:01:09.285Z,99847.72
2022-10-02T04:01:41.974Z,99840.88
2022-10-02T04:02:15.838Z,99836.81
2022-10-02T04:02:47.186Z,99845.22
2022-10-02T04:03:18.632Z,99842.50
2022-10-02T04:03:50.079Z,99845.53
2022-10-02T04:04:21.485Z,99843.09
2022-10-02T04:04:52.974Z,99838.13
2022-10-02T04:05:24.301Z,99835.72
2022-10-02T04:05:55.724Z,99838.72
2022-10-02T04:06:27.057Z,99840.88
2022-10-02T04:06:58.425Z,99840.06
2022-10-02T04:07:29.779Z,99846.91
2022-10-02T04:08:01.172Z,99843.91
2022-10-02T04:08:32.537Z,99834.91
2022-10-02T04:09:03.932Z,99840.34
2022-10-02T04:09:35.275Z,99841.16
2022-10-02T04:10:06.714Z,99842.28
2022-10-02T04:10:38.158Z,99839.03
2022-10-02T04:11:09.504Z,99841.16
2022-10-02T04:11:40.870Z,99837.13
2022-10-02T04:12:12.232Z,99846.91
2022-10-02T04:12:43.593Z,99843.09
2022-10-02T04:13:14.947Z,99846.09
2022-10-02T04:13:46.282Z,99842.78
2022-10-02T04:14:17.711Z,99841.69
2022-10-02T04:14:49.130Z,99845.81
2022-10-02T04:15:20.554Z,99841.97
2022-10-02T04:15:51.990Z,99841.97
2022-10-02T04:16:23.596Z,99842.50
2022-10-02T04:16:55.013Z,99844.13
2022-10-02T04:17:26.397Z,99847.94
2022-10-02T04:17:59.153Z,99846.75
2022-10-02T04:18:30.776Z,99846.84
2022-10-02T04:19:02.132Z,99846.31
2022-10-02T04:19:33.623Z,99844.41
2022-10-02T04:20:04.974Z,99850.69
2022-10-02T04:20:36.401Z,99850.38
2022-10-02T04:21:07.778Z,99852.59
2022-10-02T04:21:39.181Z,99847.94
2022-10-02T04:22:10.498Z,99850.69
2022-10-02T04:22:41.824Z,99847.94
2022-10-02T04:23:13.214Z,99842.78
2022-10-02T04:23:44.589Z,99846.63
2022-10-02T04:24:15.966Z,99846.09
2022-10-02T04:24:47.338Z,99848.53
2022-10-02T04:25:18.668Z,99843.09
2022-10-02T04:25:50.048Z,99844.72
2022-10-02T04:26:21.429Z,99844.72
2022-10-02T04:26:52.780Z,99842.78
2022-10-02T04:27:24.134Z,99844.72
2022-10-02T04:27:55.485Z,99850.16
2022-10-02T04:28:27.011Z,99846.31
2022-10-02T04:28:58.405Z,99845.53
2022-10-02T04:29:29.761Z,99846.63
2022-10-02T04:30:01.137Z,99841.16
2022-10-02T04:30:32.468Z,99839.53
2022-10-02T04:31:03.856Z,99836.00
2022-10-02T04:31:35.310Z,99846.09
2022-10-02T04:32:06.732Z,99841.16
2022-10-02T04:32:38.186Z,99840.88
2022-10-02T04:33:09.584Z,99836.53
2022-10-02T04:33:40.928Z,99844.19
2022-10-02T04:34:12.341Z,99839.25
2022-10-02T04:34:43.753Z,99842.78
2022-10-02T04:35:15.118Z,99845.81
2022-10-02T04:35:46.479Z,99837.63
2022-10-02T04:36:17.939Z,99842.28
2022-10-02T04:36:49.251Z,99844.19
2022-10-02T04:37:20.592Z,99839.53
2022-10-02T04:37:52.023Z,99849.56
2022-10-02T04:38:23.408Z,99840.88
2022-10-02T04:38:54.816Z,99847.44
2022-10-02T04:39:26.183Z,99838.94
2022-10-02T04:39:57.539Z,99840.06
2022-10-02T04:40:28.845Z,99839.25
2022-10-02T04:41:00.171Z,99844.13
2022-10-02T04:41:31.559Z,99837.03
2022-10-02T04:42:02.910Z,99840.06
2022-10-02T04:42:34.359Z,99840.88
2022-10-02T04:43:05.766Z,99843.09
2022-10-02T04:43:37.123Z,99843.09
2022-10-02T04:44:08.499Z,99849.34
2022-10-02T04:44:39.892Z,99850.47
2022-10-02T04:45:11.252Z,99847.44
2022-10-02T04:45:42.644Z,99856.13
2022-10-02T04:46:14.134Z,99853.72
2022-10-02T04:46:45.714Z,99845.22
2022-10-02T04:47:17.067Z,99850.16
2022-10-02T04:47:48.415Z,99848.75
2022-10-02T04:48:19.788Z,99847.44
2022-10-02T04:48:51.196Z,99855.63
2022-10-02T04:49:22.523Z,99856.44
2022-10-02T04:49:53.857Z,99857.53
2022-10-02T04:50:25.292Z,99850.47
2022-10-02T04:50:56.712Z,99860.50
2022-10-02T04:51:28.161Z,99854.53
2022-10-02T04:51:59.610Z,99849.06
2022-10-02T04:52:30.957Z,99855.63
2022-10-02T04:53:02.371Z,99855.63
2022-10-02T04:53:33.715Z,99860.28
2022-10-02T04:54:05.113Z,99858.66
2022-10-02T04:54:36.466Z,99850.97
2022-10-02T04:55:07.807Z,99859.97
2022-10-02T04:55:39.209Z,99859.47
2022-10-02T04:56:10.630Z,99859.69
2022-10-02T04:56:42.012Z,99859.69
2022-10-02T04:57:13.439Z,99857.25
2022-10-02T04:57:44.812Z,99857.84
2022-10-02T04:58:16.192Z,99854.81
2022-10-02T04:58:47.560Z,99860.78
2022-10-02T04:59:18.949Z,99853.72
2022-10-02T04:59:50.288Z,99861.09
2022-10-02T05:00:21.682Z,99859.69
2022-10-02T05:00:53.100Z,99856.13
2022-10-02T05:01:24.603Z,99861.31
2022-10-02T05:01:56.049Z,99852.59
2022-10-02T05:02:27.546Z,99868.16
2022-10-02T05:02:59.042Z,99857.84
2022-10-02T05:03:30.385Z,99863.00
2022-10-02T05:04:04.070Z,99861.59
2022-10-02T05:04:35.865Z,99861.91
2022-10-02T05:05:07.238Z,99858.66
2022-10-02T05:05:38.564Z,99861.38
2022-10-02T05:06:09.971Z,99860.78
2022-10-02T05:06:41.331Z,99859.69
2022-10-02T05:07:12.667Z,99864.34
2022-10-02T05:07:44.129Z,99858.88
2022-10-02T05:08:15.535Z,99855.56
2022-10-02T05:08:46.947Z,99855.03
2022-10-02T05:09:18.273Z,99854.81
2022-10-02T05:09:49.644Z,99852.31
2022-10-02T05:10:21.056Z,99848.75
2022-10-02T05:10:52.439Z,99847.44
2022-10-02T05:11:23.847Z,99853.94
2022-10-02T05:11:55.271Z,99844.41
2022-10-02T05:12:26.708Z,99854.53
2022-10-02T05:12:58.049Z,99847.34
2022-10-02T05:13:29.531Z,99843.31
2022-10-02T05:14:00.855Z,99842.41
2022-10-02T05:14:32.247Z,99847.34
2022-10-02T05:15:03.606Z,99849.56
2022-10-02T05:15:34.919Z,99844.13
2022-10-02T05:16:06.290Z,99848.75
2022-10-02T05:16:37.915Z,99847.66
2022-10-02T05:17:09.601Z,99847.44
2022-10-02T05:17:40.982Z,99842.78
2022-10-02T05:18:17.138Z,99848.97
2022-10-02T05:18:49.287Z,99853.13
2022-10-02T05:19:20.674Z,99850.97
2022-10-02T05:19:52.018Z,99839.25
2022-10-02T05:20:23.385Z,99838.44
2022-10-02T05:20:54.875Z,99849.56
2022-10-02T05:21:26.247Z,99841.97
2022-10-02T05:21:57.639Z,99849.34
2022-10-02T05:22:29.079Z,99848.53
2022-10-02T05:23:00.450Z,99850.97
2022-10-02T05:23:32.005Z,99856.72
2022-10-02T05:24:03.637Z,99852.91
2022-10-02T05:24:35.052Z,99854.81
2022-10-02T05:25:06.418Z,99849.56
2022-10-02T05:25:37.769Z,99852.91
2022-10-02T05:26:14.061Z,99851.78
2022-10-02T05:26:45.800Z,99849.34
2022-10-02T05:27:17.142Z,99856.44
2022-10-02T05:27:48.528Z,99852.91
2022-10-02T05:28:19.990Z,99853.19
2022-10-02T05:28:51.421Z,99852.91
2022-10-02T05:29:22.778Z,99853.41
2022-10-02T05:29:54.275Z,99856.44
2022-10-02T05:30:25.643Z,99861.00
2022-10-02T05:30:57.118Z,99862.41
2022-10-02T05:31:28.650Z,99859.47
2022-10-02T05:32:00.154Z,99863.81
2022-10-02T05:32:31.547Z,99861.09
2022-10-02T05:33:02.900Z,99863.31
2022-10-02T05:33:34.264Z,99866.53
2022-10-02T05:34:05.641Z,99870.91
2022-10-02T05:34:37.017Z,99863.81
2022-10-02T05:35:08.497Z,99863.00
2022-10-02T05:35:39.873Z,99861.00
2022-10-02T05:36:11.268Z,99870.59
2022-10-02T05:36:42.730Z,99873.34
2022-10-02T05:37:14.148Z,99872.53
2022-10-02T05:37:45.570Z,99867.06
2022-10-02T05:38:16.873Z,99872.53
2022-10-02T05:38:48.270Z,99869.78
2022-10-02T05:39:19.655Z,99870.09
2022-10-02T05:39:51.051Z,99874.75
2022-10-02T05:40:22.464Z,99878.56
2022-10-02T05:40:53.848Z,99873.94
2022-10-02T05:41:25.215Z,99878.88
2022-10-02T05:41:56.550Z,99882.63
2022-10-02T05:42:27.950Z,99885.13
2022-10-02T05:42:59.331Z,99886.75
2022-10-02T05:43:30.648Z,99882.13
2022-10-02T05:44:01.972Z,99884.53
2022-10-02T05:44:33.296Z,99882.13
2022-10-02T05:45:04.768Z,99889.19
2022-10-02T05:45:36.147Z,99886.69
2022-10-02T05:46:07.594Z,99888.91
2022-10-02T05:46:39.338Z,99885.66
2022-10-02T05:47:10.923Z,99891.13
2022-10-02T05:47:42.318Z,99888.16
2022-10-02T05:48:13.750Z,99890.59
2022-10-02T05:48:45.205Z,99883.22
2022-10-02T05:49:16.565Z,99891.63
2022-10-02T05:49:47.941Z,99888.38
2022-10-02T05:50:19.408Z,99889.19
2022-10-02T05:50:50.772Z,99891.63
2022-10-02T05:51:22.105Z,99883.44
2022-10-02T05:51:53.513Z,99891.94
2022-10-02T05:52:24.866Z,99892.22
2022-10-02T05:52:56.239Z,99887.28
2022-10-02T05:53:27.654Z,99887.56
2022-10-02T05:53:59.019Z,99885.66
2022-10-02T05:54:30.387Z,99886.75
2022-10-02T05:55:01.760Z,99885.13
2022-10-02T05:55:33.346Z,99882.94
2022-10-02T05:56:04.755Z,99883.44
2022-10-02T05:56:36.343Z,99877.97
2022-10-02T05:57:07.884Z,99885.06
2022-10-02T05:57:39.309Z,99885.38
2022-10-02T05:58:10.706Z,99879.09
2022-10-02T05:58:42.116Z,99881.81
2022-10-02T05:59:13.461Z,99877.97
2022-10-02T05:59:44.879Z,99882.13
2022-10-02T06:00:16.281Z,99879.09
2022-10-02T06:00:47.750Z,99882.94
2022-10-02T06:01:19.241Z,99879.09
2022-10-02T06:01:50.764Z,99873.63
2022-10-02T06:02:22.223Z,99879.09
2022-10-02T06:02:53.572Z,99872.00
2022-10-02T06:03:24.941Z,99877.47
2022-10-02T06:03:56.305Z,99876.88
2022-10-02T06:04:27.667Z,99879.09
2022-10-02T06:04:59.115Z,99877.47
2022-10-02T06:05:30.608Z,99875.84
2022-10-02T06:06:02.007Z,99882.94
2022-10-02T06:06:33.368Z,99875.03
2022-10-02T06:07:04.756Z,99885.88
2022-10-02T06:07:36.155Z,99873.63
2022-10-02T06:08:07.530Z,99886.47
2022-10-02T06:08:38.924Z,99879.09
2022-10-02T06:09:10.331Z,99880.72
2022-10-02T06:09:41.678Z,99879.38
2022-10-02T06:10:13.026Z,99882.72
2022-10-02T06:10:44.448Z,99885.06
2022-10-02T06:11:15.786Z,99883.44
2022-10-02T06:11:47.119Z,99885.38
2022-10-02T06:12:18.450Z,99883.97
2022-10-02T06:12:49.804Z,99888.91
2022-10-02T06:13:21.237Z,99890.81
2022-10-02T06:13:52.623Z,99893.25